sensor_id;sensor_type;location;lat;lon;timestamp;pressure;altitude;pressure_sealevel;temperature;humidity
79729;BME280;69218;52.132;5.418;2023-05-27T00:01:17;103154.63;;;9.46;69.85
79729;BME280;69218;52.132;5.418;2023-05-27T00:03:45;103159.16;;;9.41;70.05
79729;BME280;69218;52.132;5.418;2023-05-27T00:06:12;103161.28;;;9.31;70.29
79729;BME280;69218;52.132;5.418;2023-05-27T00:08:38;103163.13;;;9.28;70.22
79729;BME280;69218;52.132;5.418;2023-05-27T00:11:05;103164.97;;;9.26;69.68
79729;BME280;69218;52.132;5.418;2023-05-27T00:13:31;103164.13;;;9.25;70.76
79729;BME280;69218;52.132;5.418;2023-05-27T00:15:58;103165.03;;;9.24;70.60
79729;BME280;69218;52.132;5.418;2023-05-27T00:18:25;103161.84;;;9.16;70.94
79729;BME280;69218;52.132;5.418;2023-05-27T00:20:51;103159.38;;;9.12;70.80
79729;BME280;69218;52.132;5.418;2023-05-27T00:23:18;103157.72;;;9.09;71.42
79729;BME280;69218;52.132;5.418;2023-05-27T00:25:44;103148.97;;;9.10;70.49
79729;BME280;69218;52.132;5.418;2023-05-27T00:28:13;103151.63;;;9.08;70.93
79729;BME280;69218;52.132;5.418;2023-05-27T00:30:40;103150.84;;;9.06;70.93
79729;BME280;69218;52.132;5.418;2023-05-27T00:33:06;103156.06;;;9.06;70.95
79729;BME280;69218;52.132;5.418;2023-05-27T00:35:33;103148.34;;;9.03;70.85
79729;BME280;69218;52.132;5.418;2023-05-27T00:37:59;103145.81;;;9.00;71.34
79729;BME280;69218;52.132;5.418;2023-05-27T00:40:28;103145.25;;;8.92;72.05
79729;BME280;69218;52.132;5.418;2023-05-27T00:42:56;103140.94;;;8.91;71.85
79729;BME280;69218;52.132;5.418;2023-05-27T00:45:23;103143.69;;;8.87;71.97
79729;BME280;69218;52.132;5.418;2023-05-27T00:47:50;103137.72;;;8.83;72.19
79729;BME280;69218;52.132;5.418;2023-05-27T00:50:17;103136.13;;;8.79;72.37
79729;BME280;69218;52.132;5.418;2023-05-27T00:52:45;103131.81;;;8.78;72.58
79729;BME280;69218;52.132;5.418;2023-05-27T00:55:12;103130.22;;;8.74;72.68
79729;BME280;69218;52.132;5.418;2023-05-27T00:57:39;103136.50;;;8.68;72.88
79729;BME280;69218;52.132;5.418;2023-05-27T01:00:06;103123.38;;;8.70;72.70
79729;BME280;69218;52.132;5.418;2023-05-27T01:02:37;103122.69;;;8.65;72.52
79729;BME280;69218;52.132;5.418;2023-05-27T01:05:08;103117.56;;;8.62;72.76
79729;BME280;69218;52.132;5.418;2023-05-27T01:10:14;103126.34;;;8.59;73.31
79729;BME280;69218;52.132;5.418;2023-05-27T01:15:38;103123.84;;;8.56;73.68
79729;BME280;69218;52.132;5.418;2023-05-27T01:18:06;103129.19;;;8.53;73.41
79729;BME280;69218;52.132;5.418;2023-05-27T01:20:35;103124.81;;;8.53;73.48
79729;BME280;69218;52.132;5.418;2023-05-27T01:23:08;103130.06;;;8.53;73.36
79729;BME280;69218;52.132;5.418;2023-05-27T01:25:35;103125.69;;;8.52;73.56
79729;BME280;69218;52.132;5.418;2023-05-27T01:28:01;103129.34;;;8.48;73.29
79729;BME280;69218;52.132;5.418;2023-05-27T01:30:28;103128.56;;;8.46;73.68
79729;BME280;69218;52.132;5.418;2023-05-27T01:35:31;103127.00;;;8.41;74.53
79729;BME280;69218;52.132;5.418;2023-05-27T01:38:01;103137.38;;;8.42;73.35
79729;BME280;69218;52.132;5.418;2023-05-27T01:40:28;103132.28;;;8.39;74.14
79729;BME280;69218;52.132;5.418;2023-05-27T01:42:56;103125.38;;;8.37;73.70
79729;BME280;69218;52.132;5.418;2023-05-27T01:45:23;103119.44;;;8.32;74.43
79729;BME280;69218;52.132;5.418;2023-05-27T01:47:50;103116.81;;;8.32;74.45
79729;BME280;69218;52.132;5.418;2023-05-27T01:50:17;103120.38;;;8.29;74.08
79729;BME280;69218;52.132;5.418;2023-05-27T01:52:43;103118.78;;;8.25;73.89
79729;BME280;69218;52.132;5.418;2023-05-27T01:55:10;103115.41;;;8.21;74.16
79729;BME280;69218;52.132;5.418;2023-05-27T01:57:37;103119.66;;;8.24;73.69
79729;BME280;69218;52.132;5.418;2023-05-27T02:00:04;103125.00;;;8.21;74.23
79729;BME280;69218;52.132;5.418;2023-05-27T02:02:31;103128.59;;;8.17;73.87
79729;BME280;69218;52.132;5.418;2023-05-27T02:04:58;103130.34;;;8.18;74.09
79729;BME280;69218;52.132;5.418;2023-05-27T02:07:24;103129.63;;;8.13;74.56
79729;BME280;69218;52.132;5.418;2023-05-27T02:09:53;103132.38;;;8.08;74.96
79729;BME280;69218;52.132;5.418;2023-05-27T02:12:19;103137.66;;;8.07;75.16
79729;BME280;69218;52.132;5.418;2023-05-27T02:14:46;103140.34;;;8.05;75.38
79729;BME280;69218;52.132;5.418;2023-05-27T02:17:15;103141.19;;;8.06;75.19
79729;BME280;69218;52.132;5.418;2023-05-27T02:19:46;103132.63;;;8.01;75.49
79729;BME280;69218;52.132;5.418;2023-05-27T02:22:13;103134.56;;;7.94;75.91
79729;BME280;69218;52.132;5.418;2023-05-27T02:24:39;103136.41;;;7.92;74.87
79729;BME280;69218;52.132;5.418;2023-05-27T02:27:06;103128.63;;;7.90;75.07
79729;BME280;69218;52.132;5.418;2023-05-27T02:29:32;103119.94;;;7.90;75.34
79729;BME280;69218;52.132;5.418;2023-05-27T02:31:59;103121.69;;;7.89;76.08
79729;BME280;69218;52.132;5.418;2023-05-27T02:34:26;103115.69;;;7.86;75.85
79729;BME280;69218;52.132;5.418;2023-05-27T02:36:52;103114.03;;;7.83;75.75
79729;BME280;69218;52.132;5.418;2023-05-27T02:39:19;103112.41;;;7.79;76.50
79729;BME280;69218;52.132;5.418;2023-05-27T02:41:45;103120.34;;;7.76;76.40
79729;BME280;69218;52.132;5.418;2023-05-27T02:44:12;103113.50;;;7.72;76.44
79729;BME280;69218;52.132;5.418;2023-05-27T02:46:38;103113.56;;;7.70;76.30
79729;BME280;69218;52.132;5.418;2023-05-27T02:49:05;103113.63;;;7.69;76.79
79729;BME280;69218;52.132;5.418;2023-05-27T02:51:31;103109.31;;;7.66;76.19
79729;BME280;69218;52.132;5.418;2023-05-27T02:53:58;103114.47;;;7.69;76.32
79729;BME280;69218;52.132;5.418;2023-05-27T02:56:24;103115.38;;;7.68;76.20
79729;BME280;69218;52.132;5.418;2023-05-27T02:58:52;103113.63;;;7.67;75.40
79729;BME280;69218;52.132;5.418;2023-05-27T03:01:19;103116.34;;;7.64;76.28
79729;BME280;69218;52.132;5.418;2023-05-27T03:03:45;103117.31;;;7.62;77.13
79729;BME280;69218;52.132;5.418;2023-05-27T03:06:12;103118.25;;;7.59;77.11
79729;BME280;69218;52.132;5.418;2023-05-27T03:08:39;103120.84;;;7.59;75.42
79729;BME280;69218;52.132;5.418;2023-05-27T03:11:06;103123.41;;;7.61;76.28
79729;BME280;69218;52.132;5.418;2023-05-27T03:13:33;103119.16;;;7.58;75.49
79729;BME280;69218;52.132;5.418;2023-05-27T03:15:59;103121.75;;;7.58;76.08
79729;BME280;69218;52.132;5.418;2023-05-27T03:18:26;103123.56;;;7.56;76.36
79729;BME280;69218;52.132;5.418;2023-05-27T03:20:52;103124.66;;;7.49;76.97
79729;BME280;69218;52.132;5.418;2023-05-27T03:23:19;103127.34;;;7.46;76.53
79729;BME280;69218;52.132;5.418;2023-05-27T03:25:46;103127.44;;;7.43;76.59
79729;BME280;69218;52.132;5.418;2023-05-27T03:28:12;103123.13;;;7.42;77.88
79729;BME280;69218;52.132;5.418;2023-05-27T03:30:40;103128.47;;;7.37;76.92
79729;BME280;69218;52.132;5.418;2023-05-27T03:33:09;103126.78;;;7.36;76.84
79729;BME280;69218;52.132;5.418;2023-05-27T03:35:36;103119.00;;;7.35;77.16
79729;BME280;69218;52.132;5.418;2023-05-27T03:38:04;103113.78;;;7.35;76.21
79729;BME280;69218;52.132;5.418;2023-05-27T03:40:31;103120.66;;;7.37;76.67
79729;BME280;69218;52.132;5.418;2023-05-27T03:42:57;103111.13;;;7.36;77.06
79729;BME280;69218;52.132;5.418;2023-05-27T03:45:24;103113.72;;;7.36;77.57
79729;BME280;69218;52.132;5.418;2023-05-27T03:47:50;103109.31;;;7.38;77.23
79729;BME280;69218;52.132;5.418;2023-05-27T03:50:17;103109.31;;;7.38;77.17
79729;BME280;69218;52.132;5.418;2023-05-27T03:52:44;103105.00;;;7.37;77.56
79729;BME280;69218;52.132;5.418;2023-05-27T03:55:10;103102.25;;;7.42;76.40
79729;BME280;69218;52.132;5.418;2023-05-27T03:57:37;103099.59;;;7.43;76.71
79729;BME280;69218;52.132;5.418;2023-05-27T04:00:04;103093.56;;;7.41;76.67
79729;BME280;69218;52.132;5.418;2023-05-27T04:02:34;103104.00;;;7.41;77.46
79729;BME280;69218;52.132;5.418;2023-05-27T04:05:01;103099.59;;;7.43;76.22
79729;BME280;69218;52.132;5.418;2023-05-27T04:07:28;103101.22;;;7.48;77.13
79729;BME280;69218;52.132;5.418;2023-05-27T04:09:55;103100.25;;;7.50;76.11
79729;BME280;69218;52.132;5.418;2023-05-27T04:12:21;103102.03;;;7.50;76.37
79729;BME280;69218;52.132;5.418;2023-05-27T04:14:48;103101.97;;;7.51;76.43
79729;BME280;69218;52.132;5.418;2023-05-27T04:17:14;103100.13;;;7.55;76.66
79729;BME280;69218;52.132;5.418;2023-05-27T04:19:41;103091.47;;;7.54;76.45
79729;BME280;69218;52.132;5.418;2023-05-27T04:22:07;103091.41;;;7.56;76.24
79729;BME280;69218;52.132;5.418;2023-05-27T04:24:34;103097.38;;;7.59;77.01
79729;BME280;69218;52.132;5.418;2023-05-27T04:27:01;103086.84;;;7.62;77.51
79729;BME280;69218;52.132;5.418;2023-05-27T04:29:28;103097.19;;;7.65;76.97
79729;BME280;69218;52.132;5.418;2023-05-27T04:31:58;103088.44;;;7.66;76.67
79729;BME280;69218;52.132;5.418;2023-05-27T04:34:24;103094.50;;;7.68;76.93
79729;BME280;69218;52.132;5.418;2023-05-27T04:36:52;103088.38;;;7.69;76.04
79729;BME280;69218;52.132;5.418;2023-05-27T04:39:18;103093.44;;;7.74;75.75
79729;BME280;69218;52.132;5.418;2023-05-27T04:41:45;103090.63;;;7.80;76.02
79729;BME280;69218;52.132;5.418;2023-05-27T04:44:12;103101.00;;;7.83;76.34
79729;BME280;69218;52.132;5.418;2023-05-27T04:46:39;103092.13;;;7.87;76.27
79729;BME280;69218;52.132;5.418;2023-05-27T04:49:07;103089.38;;;7.92;77.06
79729;BME280;69218;52.132;5.418;2023-05-27T04:51:34;103081.41;;;7.96;76.73
79729;BME280;69218;52.132;5.418;2023-05-27T04:54:02;103082.34;;;7.94;77.02
79729;BME280;69218;52.132;5.418;2023-05-27T04:56:29;103084.03;;;7.96;77.84
79729;BME280;69218;52.132;5.418;2023-05-27T04:58:55;103082.34;;;7.94;76.65
79729;BME280;69218;52.132;5.418;2023-05-27T05:01:22;103079.53;;;8.00;77.12
79729;BME280;69218;52.132;5.418;2023-05-27T05:03:51;103078.38;;;8.09;77.93
79729;BME280;69218;52.132;5.418;2023-05-27T05:06:38;103067.00;;;8.11;78.16
79729;BME280;69218;52.132;5.418;2023-05-27T05:09:05;103072.97;;;8.15;77.18
79729;BME280;69218;52.132;5.418;2023-05-27T05:11:32;103077.13;;;8.20;77.84
79729;BME280;69218;52.132;5.418;2023-05-27T05:13:58;103079.69;;;8.22;77.73
79729;BME280;69218;52.132;5.418;2023-05-27T05:16:25;103072.63;;;8.24;78.20
79729;BME280;69218;52.132;5.418;2023-05-27T05:18:52;103077.78;;;8.27;78.40
79729;BME280;69218;52.132;5.418;2023-05-27T05:21:18;103076.44;;;8.42;77.59
79729;BME280;69218;52.132;5.418;2023-05-27T05:23:45;103086.28;;;8.59;77.66
79729;BME280;69218;52.132;5.418;2023-05-27T05:26:11;103084.09;;;8.71;77.10
79729;BME280;69218;52.132;5.418;2023-05-27T05:28:38;103077.25;;;8.92;76.35
79729;BME280;69218;52.132;5.418;2023-05-27T05:31:04;103064.78;;;8.99;76.68
79729;BME280;69218;52.132;5.418;2023-05-27T05:33:31;103063.81;;;9.01;76.67
79729;BME280;69218;52.132;5.418;2023-05-27T05:35:57;103063.72;;;9.04;76.05
79729;BME280;69218;52.132;5.418;2023-05-27T05:38:24;103064.22;;;9.14;76.09
79729;BME280;69218;52.132;5.418;2023-05-27T05:40:50;103068.50;;;9.17;75.82
79729;BME280;69218;52.132;5.418;2023-05-27T05:43:19;103056.88;;;9.24;76.44
79729;BME280;69218;52.132;5.418;2023-05-27T05:45:46;103059.31;;;9.28;76.11
79729;BME280;69218;52.132;5.418;2023-05-27T05:48:13;103062.53;;;9.35;75.72
79729;BME280;69218;52.132;5.418;2023-05-27T05:50:39;103062.06;;;9.47;76.24
79729;BME280;69218;52.132;5.418;2023-05-27T05:53:06;103067.06;;;9.53;76.03
79729;BME280;69218;52.132;5.418;2023-05-27T05:55:33;103057.13;;;9.61;75.28
79729;BME280;69218;52.132;5.418;2023-05-27T05:58:00;103054.38;;;9.64;75.56
79729;BME280;69218;52.132;5.418;2023-05-27T06:00:27;103051.41;;;9.74;75.14
79729;BME280;69218;52.132;5.418;2023-05-27T06:02:54;103052.56;;;9.88;75.11
79729;BME280;69218;52.132;5.418;2023-05-27T06:05:20;103051.19;;;10.00;75.40
79729;BME280;69218;52.132;5.418;2023-05-27T06:07:48;103058.78;;;10.06;74.50
79729;BME280;69218;52.132;5.418;2023-05-27T06:10:15;103051.66;;;10.10;74.77
79729;BME280;69218;52.132;5.418;2023-05-27T06:12:43;103048.78;;;10.16;74.99
79729;BME280;69218;52.132;5.418;2023-05-27T06:15:10;103046.66;;;10.26;74.58
79729;BME280;69218;52.132;5.418;2023-05-27T06:17:36;103032.22;;;10.36;74.93
79729;BME280;69218;52.132;5.418;2023-05-27T06:20:03;103038.84;;;10.44;74.90
79729;BME280;69218;52.132;5.418;2023-05-27T06:22:30;103034.63;;;10.61;74.33
79729;BME280;69218;52.132;5.418;2023-05-27T06:24:57;103023.78;;;10.68;73.54
79729;BME280;69218;52.132;5.418;2023-05-27T06:27:23;103027.00;;;10.75;73.57
79729;BME280;69218;52.132;5.418;2023-05-27T06:29:50;103027.28;;;10.88;73.47
79729;BME280;69218;52.132;5.418;2023-05-27T06:32:17;103016.09;;;11.03;73.23
79729;BME280;69218;52.132;5.418;2023-05-27T06:34:43;103011.88;;;11.18;72.15
79729;BME280;69218;52.132;5.418;2023-05-27T06:37:10;103009.44;;;11.32;72.16
79729;BME280;69218;52.132;5.418;2023-05-27T06:39:36;103016.66;;;11.46;71.82
79729;BME280;69218;52.132;5.418;2023-05-27T06:42:03;103012.72;;;11.54;70.86
79729;BME280;69218;52.132;5.418;2023-05-27T06:44:30;103011.59;;;11.60;70.91
79729;BME280;69218;52.132;5.418;2023-05-27T06:46:56;103003.19;;;11.71;70.86
79729;BME280;69218;52.132;5.418;2023-05-27T06:49:23;103008.88;;;11.80;70.46
79729;BME280;69218;52.132;5.418;2023-05-27T06:51:50;103003.84;;;11.93;70.01
79729;BME280;69218;52.132;5.418;2023-05-27T06:54:16;102995.56;;;12.01;69.98
79729;BME280;69218;52.132;5.418;2023-05-27T06:56:43;102999.81;;;12.21;69.84
79729;BME280;69218;52.132;5.418;2023-05-27T06:59:09;103003.94;;;12.42;68.92
79729;BME280;69218;52.132;5.418;2023-05-27T07:01:38;102997.78;;;12.59;68.93
79729;BME280;69218;52.132;5.418;2023-05-27T07:04:05;102986.59;;;12.71;68.04
79729;BME280;69218;52.132;5.418;2023-05-27T07:06:31;102985.25;;;12.80;67.61
79729;BME280;69218;52.132;5.418;2023-05-27T07:08:58;102980.50;;;12.86;67.47
79729;BME280;69218;52.132;5.418;2023-05-27T07:11:24;102987.03;;;12.95;66.18
79729;BME280;69218;52.132;5.418;2023-05-27T07:13:52;102978.38;;;13.09;66.16
79729;BME280;69218;52.132;5.418;2023-05-27T07:16:19;102981.78;;;13.11;66.24
79729;BME280;69218;52.132;5.418;2023-05-27T07:18:46;102979.56;;;13.19;65.87
79729;BME280;69218;52.132;5.418;2023-05-27T07:21:13;102967.06;;;13.38;65.81
79729;BME280;69218;52.132;5.418;2023-05-27T07:23:39;102972.81;;;13.61;65.13
79729;BME280;69218;52.132;5.418;2023-05-27T07:26:06;102969.66;;;13.84;64.87
79729;BME280;69218;52.132;5.418;2023-05-27T07:28:32;102974.97;;;13.98;63.71
79729;BME280;69218;52.132;5.418;2023-05-27T07:30:59;102968.75;;;13.99;63.57
79729;BME280;69218;52.132;5.418;2023-05-27T07:33:26;102971.88;;;14.06;62.26
79729;BME280;69218;52.132;5.418;2023-05-27T07:35:52;102972.16;;;14.16;63.01
79729;BME280;69218;52.132;5.418;2023-05-27T07:38:19;102970.09;;;14.35;62.36
79729;BME280;69218;52.132;5.418;2023-05-27T07:40:45;102966.88;;;14.30;61.86
79729;BME280;69218;52.132;5.418;2023-05-27T07:43:12;102965.50;;;14.39;62.56
79729;BME280;69218;52.132;5.418;2023-05-27T07:45:39;102963.53;;;14.56;61.95
79729;BME280;69218;52.132;5.418;2023-05-27T07:48:05;102960.69;;;14.74;61.00
79729;BME280;69218;52.132;5.418;2023-05-27T07:50:46;102960.28;;;14.80;60.79
79729;BME280;69218;52.132;5.418;2023-05-27T07:53:16;102957.88;;;15.04;61.40
79729;BME280;69218;52.132;5.418;2023-05-27T07:55:46;102950.13;;;15.28;60.13
79729;BME280;69218;52.132;5.418;2023-05-27T07:58:13;102945.06;;;15.25;59.56
79729;BME280;69218;52.132;5.418;2023-05-27T08:00:40;102942.31;;;15.26;58.86
79729;BME280;69218;52.132;5.418;2023-05-27T08:03:06;102940.16;;;15.19;58.86
79729;BME280;69218;52.132;5.418;2023-05-27T08:05:33;102933.75;;;15.35;58.05
79729;BME280;69218;52.132;5.418;2023-05-27T08:08:00;102929.97;;;15.67;58.33
79729;BME280;69218;52.132;5.418;2023-05-27T08:10:26;102930.81;;;15.80;57.73
79729;BME280;69218;52.132;5.418;2023-05-27T08:12:53;102929.03;;;15.80;57.55
79729;BME280;69218;52.132;5.418;2023-05-27T08:15:19;102921.81;;;15.82;56.97
79729;BME280;69218;52.132;5.418;2023-05-27T08:17:46;102912.28;;;15.92;56.57
79729;BME280;69218;52.132;5.418;2023-05-27T08:20:13;102910.72;;;15.90;56.23
79729;BME280;69218;52.132;5.418;2023-05-27T08:22:41;102907.13;;;15.65;57.31
79729;BME280;69218;52.132;5.418;2023-05-27T08:25:08;102903.25;;;15.57;57.38
79729;BME280;69218;52.132;5.418;2023-05-27T08:30:10;102908.72;;;15.93;57.39
79729;BME280;69218;52.132;5.418;2023-05-27T08:32:37;102905.53;;;16.01;56.07
79729;BME280;69218;52.132;5.418;2023-05-27T08:35:04;102903.94;;;16.11;57.29
79729;BME280;69218;52.132;5.418;2023-05-27T08:37:31;102905.28;;;16.30;56.52
79729;BME280;69218;52.132;5.418;2023-05-27T08:39:58;102899.63;;;16.47;55.32
79729;BME280;69218;52.132;5.418;2023-05-27T08:42:25;102887.59;;;16.67;54.45
79729;BME280;69218;52.132;5.418;2023-05-27T08:44:52;102885.94;;;16.90;54.28
79729;BME280;69218;52.132;5.418;2023-05-27T08:47:18;102890.28;;;16.91;54.01
79729;BME280;69218;52.132;5.418;2023-05-27T08:49:45;102876.88;;;16.81;54.45
79729;BME280;69218;52.132;5.418;2023-05-27T08:52:18;102871.47;;;17.07;54.32
79729;BME280;69218;52.132;5.418;2023-05-27T08:54:47;102871.66;;;17.27;53.87
79729;BME280;69218;52.132;5.418;2023-05-27T08:57:17;102871.53;;;17.40;53.05
79729;BME280;69218;52.132;5.418;2023-05-27T08:59:45;102866.94;;;17.31;53.06
79729;BME280;69218;52.132;5.418;2023-05-27T09:02:12;102862.66;;;17.52;52.66
79729;BME280;69218;52.132;5.418;2023-05-27T09:04:40;102862.22;;;17.70;51.32
79729;BME280;69218;52.132;5.418;2023-05-27T09:07:07;102861.16;;;17.72;51.73
79729;BME280;69218;52.132;5.418;2023-05-27T09:09:34;102852.47;;;17.81;51.13
79729;BME280;69218;52.132;5.418;2023-05-27T09:12:02;102848.88;;;17.94;51.49
79729;BME280;69218;52.132;5.418;2023-05-27T09:14:29;102844.16;;;18.08;51.62
79729;BME280;69218;52.132;5.418;2023-05-27T09:16:56;102846.41;;;18.24;50.04
79729;BME280;69218;52.132;5.418;2023-05-27T09:19:23;102847.88;;;18.28;49.61
79729;BME280;69218;52.132;5.418;2023-05-27T09:21:52;102846.84;;;18.52;49.24
79729;BME280;69218;52.132;5.418;2023-05-27T09:24:19;102840.56;;;18.53;49.33
79729;BME280;69218;52.132;5.418;2023-05-27T09:26:53;102840.66;;;18.62;49.62
79729;BME280;69218;52.132;5.418;2023-05-27T09:29:25;102842.03;;;18.68;48.54
79729;BME280;69218;52.132;5.418;2023-05-27T09:31:55;102823.75;;;18.75;50.07
79729;BME280;69218;52.132;5.418;2023-05-27T09:34:22;102834.19;;;18.87;47.25
79729;BME280;69218;52.132;5.418;2023-05-27T09:36:51;102823.75;;;18.75;47.45
79729;BME280;69218;52.132;5.418;2023-05-27T09:39:19;102828.19;;;18.74;48.96
79729;BME280;69218;52.132;5.418;2023-05-27T09:41:52;102827.47;;;19.04;47.80
79729;BME280;69218;52.132;5.418;2023-05-27T09:44:19;102812.88;;;19.19;47.34
79729;BME280;69218;52.132;5.418;2023-05-27T09:46:46;102818.78;;;19.23;47.00
79729;BME280;69218;52.132;5.418;2023-05-27T09:49:14;102817.03;;;19.33;47.90
79729;BME280;69218;52.132;5.418;2023-05-27T09:51:41;102818.38;;;19.48;47.43
79729;BME280;69218;52.132;5.418;2023-05-27T09:54:08;102813.38;;;19.55;47.00
79729;BME280;69218;52.132;5.418;2023-05-27T09:56:35;102818.38;;;19.69;45.91
79729;BME280;69218;52.132;5.418;2023-05-27T09:59:02;102806.03;;;19.68;45.19
79729;BME280;69218;52.132;5.418;2023-05-27T10:01:32;102810.06;;;19.63;44.41
79729;BME280;69218;52.132;5.418;2023-05-27T10:03:58;102802.56;;;19.78;45.39
79729;BME280;69218;52.132;5.418;2023-05-27T10:06:26;102798.06;;;19.68;46.62
79729;BME280;69218;52.132;5.418;2023-05-27T10:08:52;102793.75;;;19.77;45.76
79729;BME280;69218;52.132;5.418;2023-05-27T10:11:19;102790.47;;;20.04;44.50
79729;BME280;69218;52.132;5.418;2023-05-27T10:13:46;102787.28;;;20.10;45.03
79729;BME280;69218;52.132;5.418;2023-05-27T10:16:22;102784.34;;;20.23;44.58
79729;BME280;69218;52.132;5.418;2023-05-27T10:18:56;102778.91;;;20.44;45.27
79729;BME280;69218;52.132;5.418;2023-05-27T10:21:27;102771.59;;;20.36;45.01
79729;BME280;69218;52.132;5.418;2023-05-27T10:23:58;102774.59;;;20.62;44.74
79729;BME280;69218;52.132;5.418;2023-05-27T10:26:32;102773.16;;;20.77;40.56
79729;BME280;69218;52.132;5.418;2023-05-27T10:29:12;102769.38;;;20.70;43.01
79729;BME280;69218;52.132;5.418;2023-05-27T10:31:52;102773.31;;;20.76;42.42
79729;BME280;69218;52.132;5.418;2023-05-27T10:34:19;102761.50;;;21.07;41.37
79729;BME280;69218;52.132;5.418;2023-05-27T10:36:47;102757.78;;;21.28;39.90
79729;BME280;69218;52.132;5.418;2023-05-27T10:39:24;102755.00;;;21.29;40.65
79729;BME280;69218;52.132;5.418;2023-05-27T10:41:55;102752.28;;;21.39;41.97
79729;BME280;69218;52.132;5.418;2023-05-27T10:44:27;102754.06;;;21.48;41.26
79729;BME280;69218;52.132;5.418;2023-05-27T10:47:10;102752.41;;;21.75;40.32
79729;BME280;69218;52.132;5.418;2023-05-27T10:49:38;102747.72;;;21.59;39.22
79729;BME280;69218;52.132;5.418;2023-05-27T10:52:13;102742.59;;;21.38;39.72
79729;BME280;69218;52.132;5.418;2023-05-27T10:54:41;102741.78;;;21.28;37.99
79729;BME280;69218;52.132;5.418;2023-05-27T10:57:10;102734.69;;;21.46;40.13
79729;BME280;69218;52.132;5.418;2023-05-27T10:59:54;102730.06;;;21.48;38.80
79729;BME280;69218;52.132;5.418;2023-05-27T11:02:28;102727.63;;;21.82;38.87
79729;BME280;69218;52.132;5.418;2023-05-27T11:04:57;102716.22;;;22.08;39.82
79729;BME280;69218;52.132;5.418;2023-05-27T11:07:24;102718.06;;;22.07;36.46
79729;BME280;69218;52.132;5.418;2023-05-27T11:09:53;102724.22;;;22.08;36.70
79729;BME280;69218;52.132;5.418;2023-05-27T11:12:23;102713.00;;;22.04;36.13
79729;BME280;69218;52.132;5.418;2023-05-27T11:14:54;102714.25;;;22.10;35.25
79729;BME280;69218;52.132;5.418;2023-05-27T11:17:22;102708.53;;;22.23;37.55
79729;BME280;69218;52.132;5.418;2023-05-27T11:19:49;102699.59;;;22.32;37.62
79729;BME280;69218;52.132;5.418;2023-05-27T11:22:17;102688.34;;;22.46;37.17
79729;BME280;69218;52.132;5.418;2023-05-27T11:24:58;102693.09;;;22.52;37.06
79729;BME280;69218;52.132;5.418;2023-05-27T11:27:38;102689.41;;;22.53;37.20
79729;BME280;69218;52.132;5.418;2023-05-27T11:30:08;102685.75;;;22.80;37.77
79729;BME280;69218;52.132;5.418;2023-05-27T11:32:36;102682.81;;;22.65;37.78
79729;BME280;69218;52.132;5.418;2023-05-27T11:35:04;102681.25;;;22.81;35.32
79729;BME280;69218;52.132;5.418;2023-05-27T11:37:34;102672.16;;;22.91;34.46
79729;BME280;69218;52.132;5.418;2023-05-27T11:40:01;102661.41;;;23.17;36.58
79729;BME280;69218;52.132;5.418;2023-05-27T11:42:29;102660.69;;;23.41;34.86
79729;BME280;69218;52.132;5.418;2023-05-27T11:44:57;102662.63;;;23.31;35.15
79729;BME280;69218;52.132;5.418;2023-05-27T11:47:25;102660.47;;;23.26;33.83
79729;BME280;69218;52.132;5.418;2023-05-27T11:49:52;102653.91;;;23.21;33.98
79729;BME280;69218;52.132;5.418;2023-05-27T11:52:19;102647.16;;;23.51;34.97
79729;BME280;69218;52.132;5.418;2023-05-27T11:54:49;102644.50;;;23.59;34.84
79729;BME280;69218;52.132;5.418;2023-05-27T11:57:23;102635.44;;;23.60;34.75
79729;BME280;69218;52.132;5.418;2023-05-27T11:59:50;102629.31;;;23.68;35.96
79729;BME280;69218;52.132;5.418;2023-05-27T12:02:17;102629.19;;;23.94;35.15
79729;BME280;69218;52.132;5.418;2023-05-27T12:04:44;102629.53;;;24.07;35.75
79729;BME280;69218;52.132;5.418;2023-05-27T12:07:11;102611.75;;;24.30;35.00
79729;BME280;69218;52.132;5.418;2023-05-27T12:09:46;102633.03;;;24.32;34.65
79729;BME280;69218;52.132;5.418;2023-05-27T12:12:15;102616.94;;;24.24;34.90
79729;BME280;69218;52.132;5.418;2023-05-27T12:14:41;102612.94;;;24.28;33.12
79729;BME280;69218;52.132;5.418;2023-05-27T12:17:08;102609.91;;;24.23;34.74
79729;BME280;69218;52.132;5.418;2023-05-27T12:19:35;102605.41;;;24.48;33.02
79729;BME280;69218;52.132;5.418;2023-05-27T12:22:01;102600.09;;;24.79;33.59
79729;BME280;69218;52.132;5.418;2023-05-27T12:24:28;102603.47;;;24.81;31.11
79729;BME280;69218;52.132;5.418;2023-05-27T12:26:56;102593.56;;;24.81;31.96
79729;BME280;69218;52.132;5.418;2023-05-27T12:29:22;102601.63;;;24.81;31.57
79729;BME280;69218;52.132;5.418;2023-05-27T12:31:50;102587.91;;;24.68;31.10
79729;BME280;69218;52.132;5.418;2023-05-27T12:34:17;102594.22;;;24.83;33.08
79729;BME280;69218;52.132;5.418;2023-05-27T12:36:44;102584.97;;;24.86;33.64
79729;BME280;69218;52.132;5.418;2023-05-27T12:39:11;102584.81;;;24.87;32.39
79729;BME280;69218;52.132;5.418;2023-05-27T12:41:38;102577.13;;;24.84;32.99
79729;BME280;69218;52.132;5.418;2023-05-27T12:44:05;102577.00;;;24.70;32.29
79729;BME280;69218;52.132;5.418;2023-05-27T12:46:31;102575.88;;;24.56;33.55
79729;BME280;69218;52.132;5.418;2023-05-27T12:48:58;102573.00;;;24.57;32.86
79729;BME280;69218;52.132;5.418;2023-05-27T12:51:25;102558.97;;;24.86;30.80
79729;BME280;69218;52.132;5.418;2023-05-27T12:53:51;102570.34;;;24.97;30.06
79729;BME280;69218;52.132;5.418;2023-05-27T12:56:19;102564.22;;;25.19;30.39
79729;BME280;69218;52.132;5.418;2023-05-27T12:58:45;102567.88;;;25.26;30.12
79729;BME280;69218;52.132;5.418;2023-05-27T13:01:12;102556.78;;;25.29;30.89
79729;BME280;69218;52.132;5.418;2023-05-27T13:03:39;102553.56;;;25.03;30.33
79729;BME280;69218;52.132;5.418;2023-05-27T13:06:06;102559.63;;;25.05;30.24
79729;BME280;69218;52.132;5.418;2023-05-27T13:08:33;102546.78;;;25.15;30.51